sensor_id;sensor_type;location;lat;lon;timestamp;P1;durP1;ratioP1;P2;durP2;ratioP2
31002;SDS011;23051;-6.372;106.786;2022-08-19T00:01:58;13.68;;;4.63;;
31002;SDS011;23051;-6.372;106.786;2022-08-19T00:04:00;5.53;;;3.67;;
31002;SDS011;23051;-6.372;106.786;2022-08-19T00:06:04;5.03;;;3.33;;
31002;SDS011;23051;-6.372;106.786;2022-08-19T00:08:09;3.22;;;2.92;;
31002;SDS011;23051;-6.372;106.786;2022-08-19T00:10:15;6.35;;;3.38;;
31002;SDS011;23051;-6.372;106.786;2022-08-19T00:12:17;8.75;;;4.85;;
31002;SDS011;23051;-6.372;106.786;2022-08-19T00:14:19;4.40;;;3.70;;
31002;SDS011;23051;-6.372;106.786;2022-08-19T00:16:22;6.07;;;5.22;;
31002;SDS011;23051;-6.372;106.786;2022-08-19T00:18:24;10.48;;;4.35;;
31002;SDS011;23051;-6.372;106.786;2022-08-19T00:20:29;3.60;;;3.15;;
31002;SDS011;23051;-6.372;106.786;2022-08-19T00:22:30;4.82;;;4.40;;
31002;SDS011;23051;-6.372;106.786;2022-08-19T00:24:37;6.43;;;3.25;;
31002;SDS011;23051;-6.372;106.786;2022-08-19T00:26:38;9.35;;;4.53;;
31002;SDS011;23051;-6.372;106.786;2022-08-19T00:28:42;7.82;;;5.30;;
31002;SDS011;23051;-6.372;106.786;2022-08-19T00:30:46;4.93;;;4.50;;
31002;SDS011;23051;-6.372;106.786;2022-08-19T00:32:48;8.40;;;5.47;;
31002;SDS011;23051;-6.372;106.786;2022-08-19T00:34:52;8.57;;;4.25;;
31002;SDS011;23051;-6.372;106.786;2022-08-19T00:36:59;10.88;;;5.90;;
31002;SDS011;23051;-6.372;106.786;2022-08-19T00:39:00;8.55;;;5.65;;
31002;SDS011;23051;-6.372;106.786;2022-08-19T00:41:02;13.52;;;6.20;;
31002;SDS011;23051;-6.372;106.786;2022-08-19T00:43:11;6.13;;;5.25;;
31002;SDS011;23051;-6.372;106.786;2022-08-19T00:47:17;8.93;;;5.38;;
31002;SDS011;23051;-6.372;106.786;2022-08-19T00:49:23;8.95;;;6.20;;
31002;SDS011;23051;-6.372;106.786;2022-08-19T00:51:27;7.00;;;6.35;;
31002;SDS011;23051;-6.372;106.786;2022-08-19T00:53:30;10.98;;;4.40;;
31002;SDS011;23051;-6.372;106.786;2022-08-19T00:55:36;12.13;;;8.13;;
31002;SDS011;23051;-6.372;106.786;2022-08-19T00:57:40;10.40;;;5.18;;
31002;SDS011;23051;-6.372;106.786;2022-08-19T00:59:46;21.30;;;5.45;;
31002;SDS011;23051;-6.372;106.786;2022-08-19T01:01:48;9.10;;;5.43;;
31002;SDS011;23051;-6.372;106.786;2022-08-19T01:03:52;16.25;;;5.78;;
31002;SDS011;23051;-6.372;106.786;2022-08-19T01:05:57;6.55;;;4.65;;
31002;SDS011;23051;-6.372;106.786;2022-08-19T01:08:02;6.82;;;5.85;;
31002;SDS011;23051;-6.372;106.786;2022-08-19T01:10:06;20.73;;;6.63;;
31002;SDS011;23051;-6.372;106.786;2022-08-19T01:12:08;9.73;;;5.03;;
31002;SDS011;23051;-6.372;106.786;2022-08-19T01:14:10;9.52;;;6.53;;
31002;SDS011;23051;-6.372;106.786;2022-08-19T01:16:14;19.45;;;7.15;;
31002;SDS011;23051;-6.372;106.786;2022-08-19T01:18:19;27.17;;;5.47;;
31002;SDS011;23051;-6.372;106.786;2022-08-19T01:20:23;20.73;;;5.53;;
31002;SDS011;23051;-6.372;106.786;2022-08-19T01:22:28;13.40;;;6.90;;
31002;SDS011;23051;-6.372;106.786;2022-08-19T01:24:33;10.02;;;6.57;;
31002;SDS011;23051;-6.372;106.786;2022-08-19T01:28:40;22.25;;;9.50;;
31002;SDS011;23051;-6.372;106.786;2022-08-19T01:30:44;7.90;;;7.20;;
31002;SDS011;23051;-6.372;106.786;2022-08-19T01:32:49;15.48;;;7.57;;
31002;SDS011;23051;-6.372;106.786;2022-08-19T01:34:56;21.92;;;8.07;;
31002;SDS011;23051;-6.372;106.786;2022-08-19T01:37:01;7.95;;;6.75;;
31002;SDS011;23051;-6.372;106.786;2022-08-19T01:39:10;15.20;;;8.40;;
31002;SDS011;23051;-6.372;106.786;2022-08-19T01:41:12;8.70;;;6.07;;
31002;SDS011;23051;-6.372;106.786;2022-08-19T01:43:14;12.55;;;6.65;;
31002;SDS011;23051;-6.372;106.786;2022-08-19T01:45:16;7.82;;;7.07;;
31002;SDS011;23051;-6.372;106.786;2022-08-19T01:47:18;21.65;;;7.03;;
31002;SDS011;23051;-6.372;106.786;2022-08-19T01:49:22;11.55;;;6.78;;
31002;SDS011;23051;-6.372;106.786;2022-08-19T01:51:25;6.43;;;4.22;;
31002;SDS011;23051;-6.372;106.786;2022-08-19T01:53:30;14.50;;;6.67;;
31002;SDS011;23051;-6.372;106.786;2022-08-19T01:55:32;10.27;;;7.53;;
31002;SDS011;23051;-6.372;106.786;2022-08-19T01:57:37;13.43;;;7.25;;
31002;SDS011;23051;-6.372;106.786;2022-08-19T01:59:40;16.50;;;8.23;;
31002;SDS011;23051;-6.372;106.786;2022-08-19T02:01:44;17.02;;;7.32;;
31002;SDS011;23051;-6.372;106.786;2022-08-19T02:03:46;11.30;;;6.20;;
31002;SDS011;23051;-6.372;106.786;2022-08-19T02:05:52;9.88;;;5.22;;
31002;SDS011;23051;-6.372;106.786;2022-08-19T02:09:56;10.30;;;4.20;;
31002;SDS011;23051;-6.372;106.786;2022-08-19T02:12:00;11.15;;;6.95;;
31002;SDS011;23051;-6.372;106.786;2022-08-19T02:16:02;6.35;;;5.32;;
31002;SDS011;23051;-6.372;106.786;2022-08-19T02:18:06;5.70;;;4.80;;
31002;SDS011;23051;-6.372;106.786;2022-08-19T02:20:13;12.82;;;7.88;;
31002;SDS011;23051;-6.372;106.786;2022-08-19T02:22:17;7.82;;;5.10;;
31002;SDS011;23051;-6.372;106.786;2022-08-19T02:24:19;5.30;;;4.90;;
31002;SDS011;23051;-6.372;106.786;2022-08-19T02:26:20;13.27;;;6.35;;
31002;SDS011;23051;-6.372;106.786;2022-08-19T02:28:22;5.68;;;5.18;;
31002;SDS011;23051;-6.372;106.786;2022-08-19T02:30:24;11.15;;;6.78;;
31002;SDS011;23051;-6.372;106.786;2022-08-19T02:32:30;9.32;;;6.38;;
31002;SDS011;23051;-6.372;106.786;2022-08-19T02:34:32;8.98;;;6.22;;
31002;SDS011;23051;-6.372;106.786;2022-08-19T02:36:38;6.07;;;5.18;;
31002;SDS011;23051;-6.372;106.786;2022-08-19T02:38:43;8.77;;;6.72;;
31002;SDS011;23051;-6.372;106.786;2022-08-19T02:42:50;12.43;;;6.72;;
31002;SDS011;23051;-6.372;106.786;2022-08-19T02:44:52;13.77;;;5.75;;
31002;SDS011;23051;-6.372;106.786;2022-08-19T02:47:01;7.18;;;4.93;;
31002;SDS011;23051;-6.372;106.786;2022-08-19T02:49:04;17.80;;;5.55;;
31002;SDS011;23051;-6.372;106.786;2022-08-19T02:51:07;6.45;;;4.80;;
31002;SDS011;23051;-6.372;106.786;2022-08-19T02:53:14;6.80;;;5.50;;
31002;SDS011;23051;-6.372;106.786;2022-08-19T02:55:15;6.15;;;4.65;;
31002;SDS011;23051;-6.372;106.786;2022-08-19T02:57:17;8.88;;;3.85;;
31002;SDS011;23051;-6.372;106.786;2022-08-19T02:59:19;4.50;;;4.10;;
31002;SDS011;23051;-6.372;106.786;2022-08-19T03:01:25;10.45;;;6.18;;
31002;SDS011;23051;-6.372;106.786;2022-08-19T03:03:29;7.03;;;5.70;;
31002;SDS011;23051;-6.372;106.786;2022-08-19T03:05:33;8.57;;;4.90;;
31002;SDS011;23051;-6.372;106.786;2022-08-19T03:07:37;5.47;;;4.13;;
31002;SDS011;23051;-6.372;106.786;2022-08-19T03:09:39;5.88;;;4.05;;
31002;SDS011;23051;-6.372;106.786;2022-08-19T03:11:43;8.57;;;4.50;;
31002;SDS011;23051;-6.372;106.786;2022-08-19T03:13:47;4.30;;;3.75;;
31002;SDS011;23051;-6.372;106.786;2022-08-19T03:15:50;5.40;;;4.47;;
31002;SDS011;23051;-6.372;106.786;2022-08-19T03:17:54;3.35;;;2.45;;
31002;SDS011;23051;-6.372;106.786;2022-08-19T03:19:58;4.40;;;4.00;;
31002;SDS011;23051;-6.372;106.786;2022-08-19T03:22:00;11.15;;;4.18;;
31002;SDS011;23051;-6.372;106.786;2022-08-19T03:24:04;6.13;;;4.82;;
31002;SDS011;23051;-6.372;106.786;2022-08-19T03:26:10;6.18;;;3.83;;
31002;SDS011;23051;-6.372;106.786;2022-08-19T03:28:12;5.57;;;4.40;;
31002;SDS011;23051;-6.372;106.786;2022-08-19T03:30:14;7.10;;;4.30;;
31002;SDS011;23051;-6.372;106.786;2022-08-19T03:32:17;7.45;;;4.60;;
31002;SDS011;23051;-6.372;106.786;2022-08-19T03:34:23;5.60;;;3.90;;
31002;SDS011;23051;-6.372;106.786;2022-08-19T03:38:31;5.72;;;3.83;;
31002;SDS011;23051;-6.372;106.786;2022-08-19T03:40:38;7.78;;;4.55;;
31002;SDS011;23051;-6.372;106.786;2022-08-19T03:42:42;3.58;;;3.28;;
31002;SDS011;23051;-6.372;106.786;2022-08-19T03:44:44;4.30;;;3.90;;
31002;SDS011;23051;-6.372;106.786;2022-08-19T03:46:48;10.77;;;4.00;;
31002;SDS011;23051;-6.372;106.786;2022-08-19T03:50:54;3.88;;;3.40;;
31002;SDS011;23051;-6.372;106.786;2022-08-19T03:53:01;8.73;;;5.70;;
31002;SDS011;23051;-6.372;106.786;2022-08-19T03:55:06;9.15;;;4.65;;
31002;SDS011;23051;-6.372;106.786;2022-08-19T03:57:10;3.70;;;2.80;;
31002;SDS011;23051;-6.372;106.786;2022-08-19T03:59:22;2.22;;;2.10;;
31002;SDS011;23051;-6.372;106.786;2022-08-19T04:01:27;3.85;;;3.42;;
31002;SDS011;23051;-6.372;106.786;2022-08-19T04:03:31;5.88;;;4.63;;
31002;SDS011;23051;-6.372;106.786;2022-08-19T04:05:35;5.10;;;3.55;;
31002;SDS011;23051;-6.372;106.786;2022-08-19T04:07:40;4.78;;;3.22;;
31002;SDS011;23051;-6.372;106.786;2022-08-19T04:09:41;2.13;;;1.55;;
31002;SDS011;23051;-6.372;106.786;2022-08-19T04:13:44;8.50;;;4.22;;
31002;SDS011;23051;-6.372;106.786;2022-08-19T04:15:48;3.70;;;2.88;;
31002;SDS011;23051;-6.372;106.786;2022-08-19T04:19:57;5.55;;;3.38;;
31002;SDS011;23051;-6.372;106.786;2022-08-19T04:22:01;7.22;;;4.00;;
31002;SDS011;23051;-6.372;106.786;2022-08-19T04:24:07;7.50;;;1.95;;
31002;SDS011;23051;-6.372;106.786;2022-08-19T04:26:12;4.15;;;3.08;;
31002;SDS011;23051;-6.372;106.786;2022-08-19T04:28:14;6.28;;;3.60;;
31002;SDS011;23051;-6.372;106.786;2022-08-19T04:30:18;4.72;;;3.75;;
31002;SDS011;23051;-6.372;106.786;2022-08-19T04:32:22;5.70;;;3.55;;
31002;SDS011;23051;-6.372;106.786;2022-08-19T04:34:26;5.35;;;4.10;;
31002;SDS011;23051;-6.372;106.786;2022-08-19T04:38:32;5.18;;;2.70;;
31002;SDS011;23051;-6.372;106.786;2022-08-19T04:40:39;17.10;;;5.22;;
31002;SDS011;23051;-6.372;106.786;2022-08-19T04:42:46;17.65;;;6.20;;
31002;SDS011;23051;-6.372;106.786;2022-08-19T04:44:47;3.08;;;2.88;;
31002;SDS011;23051;-6.372;106.786;2022-08-19T04:46:52;8.83;;;4.33;;
31002;SDS011;23051;-6.372;106.786;2022-08-19T04:48:56;13.38;;;3.72;;
31002;SDS011;23051;-6.372;106.786;2022-08-19T04:51:00;5.10;;;4.05;;
31002;SDS011;23051;-6.372;106.786;2022-08-19T04:53:03;10.27;;;3.75;;
31002;SDS011;23051;-6.372;106.786;2022-08-19T04:55:10;4.82;;;3.55;;
31002;SDS011;23051;-6.372;106.786;2022-08-19T04:57:11;4.57;;;3.30;;
31002;SDS011;23051;-6.372;106.786;2022-08-19T04:59:13;5.32;;;3.30;;
31002;SDS011;23051;-6.372;106.786;2022-08-19T05:01:18;3.97;;;3.58;;
31002;SDS011;23051;-6.372;106.786;2022-08-19T05:03:20;6.00;;;3.60;;
31002;SDS011;23051;-6.372;106.786;2022-08-19T05:05:21;7.90;;;4.60;;
31002;SDS011;23051;-6.372;106.786;2022-08-19T05:07:25;7.95;;;3.70;;
31002;SDS011;23051;-6.372;106.786;2022-08-19T05:09:27;4.05;;;3.58;;
31002;SDS011;23051;-6.372;106.786;2022-08-19T05:11:34;11.73;;;4.43;;
31002;SDS011;23051;-6.372;106.786;2022-08-19T05:13:39;5.03;;;3.08;;
31002;SDS011;23051;-6.372;106.786;2022-08-19T05:15:41;6.88;;;2.65;;
31002;SDS011;23051;-6.372;106.786;2022-08-19T05:17:45;2.42;;;2.22;;
31002;SDS011;23051;-6.372;106.786;2022-08-19T05:19:49;6.15;;;5.32;;
31002;SDS011;23051;-6.372;106.786;2022-08-19T05:21:55;10.57;;;4.30;;
31002;SDS011;23051;-6.372;106.786;2022-08-19T05:23:59;7.43;;;4.68;;
31002;SDS011;23051;-6.372;106.786;2022-08-19T05:26:02;8.77;;;2.28;;
31002;SDS011;23051;-6.372;106.786;2022-08-19T05:28:04;4.70;;;4.00;;
31002;SDS011;23051;-6.372;106.786;2022-08-19T05:30:06;4.50;;;2.85;;
31002;SDS011;23051;-6.372;106.786;2022-08-19T05:32:08;4.87;;;4.47;;
31002;SDS011;23051;-6.372;106.786;2022-08-19T05:34:14;4.90;;;4.25;;
31002;SDS011;23051;-6.372;106.786;2022-08-19T05:36:18;3.92;;;2.88;;
31002;SDS011;23051;-6.372;106.786;2022-08-19T05:38:20;6.40;;;2.40;;
31002;SDS011;23051;-6.372;106.786;2022-08-19T05:40:24;3.85;;;3.10;;
31002;SDS011;23051;-6.372;106.786;2022-08-19T05:42:30;7.07;;;2.15;;
31002;SDS011;23051;-6.372;106.786;2022-08-19T05:44:37;3.20;;;2.90;;
31002;SDS011;23051;-6.372;106.786;2022-08-19T05:46:39;13.27;;;3.88;;
31002;SDS011;23051;-6.372;106.786;2022-08-19T05:48:41;8.93;;;3.25;;
31002;SDS011;23051;-6.372;106.786;2022-08-19T05:50:43;2.45;;;2.25;;
31002;SDS011;23051;-6.372;106.786;2022-08-19T05:52:45;7.28;;;4.22;;
31002;SDS011;23051;-6.372;106.786;2022-08-19T05:54:47;6.45;;;2.88;;
31002;SDS011;23051;-6.372;106.786;2022-08-19T05:56:53;2.88;;;2.65;;
31002;SDS011;23051;-6.372;106.786;2022-08-19T05:58:55;5.60;;;4.30;;
31002;SDS011;23051;-6.372;106.786;2022-08-19T06:00:57;7.03;;;2.75;;
31002;SDS011;23051;-6.372;106.786;2022-08-19T06:03:00;5.70;;;3.38;;
31002;SDS011;23051;-6.372;106.786;2022-08-19T06:05:04;5.65;;;1.88;;
31002;SDS011;23051;-6.372;106.786;2022-08-19T06:07:12;3.33;;;2.55;;
31002;SDS011;23051;-6.372;106.786;2022-08-19T06:09:16;4.28;;;2.88;;
31002;SDS011;23051;-6.372;106.786;2022-08-19T06:11:24;2.50;;;2.30;;
31002;SDS011;23051;-6.372;106.786;2022-08-19T06:13:29;3.85;;;2.30;;
31002;SDS011;23051;-6.372;106.786;2022-08-19T06:15:35;2.95;;;2.45;;
31002;SDS011;23051;-6.372;106.786;2022-08-19T06:17:37;3.05;;;2.47;;
31002;SDS011;23051;-6.372;106.786;2022-08-19T06:19:41;6.63;;;3.60;;
31002;SDS011;23051;-6.372;106.786;2022-08-19T06:21:48;4.07;;;2.28;;
31002;SDS011;23051;-6.372;106.786;2022-08-19T06:23:52;2.80;;;2.58;;
31002;SDS011;23051;-6.372;106.786;2022-08-19T06:25:56;2.78;;;2.58;;
31002;SDS011;23051;-6.372;106.786;2022-08-19T06:27:58;3.65;;;1.88;;
31002;SDS011;23051;-6.372;106.786;2022-08-19T06:30:03;4.38;;;2.42;;
31002;SDS011;23051;-6.372;106.786;2022-08-19T06:32:08;6.32;;;2.20;;
31002;SDS011;23051;-6.372;106.786;2022-08-19T06:34:14;3.97;;;2.22;;
31002;SDS011;23051;-6.372;106.786;2022-08-19T06:38:23;8.35;;;2.22;;
31002;SDS011;23051;-6.372;106.786;2022-08-19T06:40:25;2.00;;;1.90;;
31002;SDS011;23051;-6.372;106.786;2022-08-19T06:42:27;6.22;;;3.38;;
31002;SDS011;23051;-6.372;106.786;2022-08-19T06:44:32;1.25;;;1.08;;
31002;SDS011;23051;-6.372;106.786;2022-08-19T06:46:37;7.55;;;2.05;;
31002;SDS011;23051;-6.372;106.786;2022-08-19T06:48:41;10.45;;;2.70;;
31002;SDS011;23051;-6.372;106.786;2022-08-19T06:50:48;2.58;;;2.38;;
31002;SDS011;23051;-6.372;106.786;2022-08-19T06:52:54;3.50;;;2.65;;
31002;SDS011;23051;-6.372;106.786;2022-08-19T06:54:55;12.30;;;2.55;;
31002;SDS011;23051;-6.372;106.786;2022-08-19T06:56:58;7.55;;;2.90;;
31002;SDS011;23051;-6.372;106.786;2022-08-19T06:59:05;1.33;;;1.17;;
31002;SDS011;23051;-6.372;106.786;2022-08-19T07:01:07;2.40;;;1.73;;
31002;SDS011;23051;-6.372;106.786;2022-08-19T07:03:11;2.40;;;1.95;;
31002;SDS011;23051;-6.372;106.786;2022-08-19T07:05:17;1.38;;;0.70;;
31002;SDS011;23051;-6.372;106.786;2022-08-19T07:07:20;2.67;;;1.25;;
31002;SDS011;23051;-6.372;106.786;2022-08-19T07:11:23;31.85;;;3.00;;
31002;SDS011;23051;-6.372;106.786;2022-08-19T07:13:29;2.42;;;2.22;;
31002;SDS011;23051;-6.372;106.786;2022-08-19T07:15:38;1.98;;;1.85;;
31002;SDS011;23051;-6.372;106.786;2022-08-19T07:17:42;2.50;;;2.30;;
31002;SDS011;23051;-6.372;106.786;2022-08-19T07:19:47;4.72;;;2.42;;
31002;SDS011;23051;-6.372;106.786;2022-08-19T07:21:51;3.03;;;2.15;;
31002;SDS011;23051;-6.372;106.786;2022-08-19T07:23:53;6.65;;;1.80;;
31002;SDS011;23051;-6.372;106.786;2022-08-19T07:25:58;4.53;;;2.53;;
31002;SDS011;23051;-6.372;106.786;2022-08-19T07:28:02;4.35;;;1.88;;
31002;SDS011;23051;-6.372;106.786;2022-08-19T07:30:04;5.63;;;3.13;;
31002;SDS011;23051;-6.372;106.786;2022-08-19T07:32:06;1.77;;;1.48;;
31002;SDS011;23051;-6.372;106.786;2022-08-19T07:34:14;1.42;;;1.35;;
31002;SDS011;23051;-6.372;106.786;2022-08-19T07:36:17;14.95;;;3.38;;
31002;SDS011;23051;-6.372;106.786;2022-08-19T07:40:20;2.45;;;2.25;;
31002;SDS011;23051;-6.372;106.786;2022-08-19T07:42:24;3.97;;;2.25;;
31002;SDS011;23051;-6.372;106.786;2022-08-19T07:44:27;10.63;;;3.87;;
31002;SDS011;23051;-6.372;106.786;2022-08-19T07:48:33;7.50;;;3.30;;
31002;SDS011;23051;-6.372;106.786;2022-08-19T07:50:37;3.35;;;2.88;;
31002;SDS011;23051;-6.372;106.786;2022-08-19T07:52:42;1.95;;;1.70;;
31002;SDS011;23051;-6.372;106.786;2022-08-19T07:54:47;9.00;;;2.40;;
31002;SDS011;23051;-6.372;106.786;2022-08-19T07:56:53;3.63;;;1.85;;
31002;SDS011;23051;-6.372;106.786;2022-08-19T07:58:55;3.20;;;2.90;;
31002;SDS011;23051;-6.372;106.786;2022-08-19T08:00:56;2.15;;;1.95;;
31002;SDS011;23051;-6.372;106.786;2022-08-19T08:03:00;3.28;;;2.97;;
31002;SDS011;23051;-6.372;106.786;2022-08-19T08:05:02;4.53;;;2.40;;
31002;SDS011;23051;-6.372;106.786;2022-08-19T08:07:09;2.92;;;2.65;;
31002;SDS011;23051;-6.372;106.786;2022-08-19T08:09:14;6.50;;;4.35;;
31002;SDS011;23051;-6.372;106.786;2022-08-19T08:11:21;1.80;;;1.70;;
31002;SDS011;23051;-6.372;106.786;2022-08-19T08:13:26;4.05;;;2.33;;
31002;SDS011;23051;-6.372;106.786;2022-08-19T08:15:30;5.20;;;3.13;;
31002;SDS011;23051;-6.372;106.786;2022-08-19T08:17:34;2.20;;;2.05;;
31002;SDS011;23051;-6.372;106.786;2022-08-19T08:19:39;5.22;;;2.85;;
31002;SDS011;23051;-6.372;106.786;2022-08-19T08:21:44;5.25;;;4.03;;
31002;SDS011;23051;-6.372;106.786;2022-08-19T08:23:48;1.75;;;1.65;;
31002;SDS011;23051;-6.372;106.786;2022-08-19T08:25:55;1.98;;;1.88;;
31002;SDS011;23051;-6.372;106.786;2022-08-19T08:27:59;3.25;;;2.35;;
31002;SDS011;23051;-6.372;106.786;2022-08-19T08:30:01;6.50;;;2.65;;
31002;SDS011;23051;-6.372;106.786;2022-08-19T08:32:02;3.33;;;2.55;;
31002;SDS011;23051;-6.372;106.786;2022-08-19T08:34:04;3.50;;;2.45;;
31002;SDS011;23051;-6.372;106.786;2022-08-19T08:36:08;2.53;;;2.33;;
31002;SDS011;23051;-6.372;106.786;2022-08-19T08:38:12;3.78;;;1.55;;
31002;SDS011;23051;-6.372;106.786;2022-08-19T08:42:21;5.38;;;2.50;;
31002;SDS011;23051;-6.372;106.786;2022-08-19T08:44:32;4.40;;;2.92;;
31002;SDS011;23051;-6.372;106.786;2022-08-19T08:46:53;2.75;;;2.38;;
31002;SDS011;23051;-6.372;106.786;2022-08-19T08:49:03;5.15;;;3.30;;
31002;SDS011;23051;-6.372;106.786;2022-08-19T08:51:14;11.40;;;4.80;;
31002;SDS011;23051;-6.372;106.786;2022-08-19T08:53:21;3.15;;;2.47;;
31002;SDS011;23051;-6.372;106.786;2022-08-19T08:55:24;3.65;;;3.35;;
31002;SDS011;23051;-6.372;106.786;2022-08-19T08:59:34;3.13;;;2.35;;
31002;SDS011;23051;-6.372;106.786;2022-08-19T09:01:36;5.15;;;3.33;;
31002;SDS011;23051;-6.372;106.786;2022-08-19T09:03:40;7.18;;;4.15;;
31002;SDS011;23051;-6.372;106.786;2022-08-19T09:07:47;6.68;;;3.58;;
31002;SDS011;23051;-6.372;106.786;2022-08-19T09:09:52;4.43;;;4.03;;
31002;SDS011;23051;-6.372;106.786;2022-08-19T09:12:00;10.85;;;4.03;;
31002;SDS011;23051;-6.372;106.786;2022-08-19T09:16:15;6.05;;;2.33;;
31002;SDS011;23051;-6.372;106.786;2022-08-19T09:18:19;4.05;;;2.95;;
31002;SDS011;23051;-6.372;106.786;2022-08-19T09:20:23;3.35;;;2.65;;
31002;SDS011;23051;-6.372;106.786;2022-08-19T09:22:28;2.90;;;2.40;;
31002;SDS011;23051;-6.372;106.786;2022-08-19T09:24:29;2.30;;;1.80;;
31002;SDS011;23051;-6.372;106.786;2022-08-19T09:26:31;4.97;;;3.65;;
31002;SDS011;23051;-6.372;106.786;2022-08-19T09:28:33;5.38;;;2.60;;
31002;SDS011;23051;-6.372;106.786;2022-08-19T09:30:39;8.35;;;4.63;;
31002;SDS011;23051;-6.372;106.786;2022-08-19T09:32:43;3.03;;;2.40;;
31002;SDS011;23051;-6.372;106.786;2022-08-19T09:34:45;4.53;;;3.53;;
31002;SDS011;23051;-6.372;106.786;2022-08-19T09:36:47;4.43;;;3.08;;
31002;SDS011;23051;-6.372;106.786;2022-08-19T09:40:54;9.98;;;3.97;;
31002;SDS011;23051;-6.372;106.786;2022-08-19T09:42:58;7.95;;;5.13;;
31002;SDS011;23051;-6.372;106.786;2022-08-19T09:45:05;4.25;;;3.83;;
31002;SDS011;23051;-6.372;106.786;2022-08-19T09:47:07;5.50;;;4.20;;
31002;SDS011;23051;-6.372;106.786;2022-08-19T09:49:12;3.85;;;2.97;;
31002;SDS011;23051;-6.372;106.786;2022-08-19T09:51:17;7.18;;;2.85;;
31002;SDS011;23051;-6.372;106.786;2022-08-19T09:53:19;4.38;;;3.17;;
31002;SDS011;23051;-6.372;106.786;2022-08-19T09:55:25;5.00;;;3.10;;
31002;SDS011;23051;-6.372;106.786;2022-08-19T09:57:29;3.95;;;3.08;;
31002;SDS011;23051;-6.372;106.786;2022-08-19T09:59:34;6.00;;;2.83;;
31002;SDS011;23051;-6.372;106.786;2022-08-19T10:01:35;5.38;;;4.10;;
31002;SDS011;23051;-6.372;106.786;2022-08-19T10:03:39;5.70;;;3.58;;
31002;SDS011;23051;-6.372;106.786;2022-08-19T10:05:41;3.92;;;3.47;;
31002;SDS011;23051;-6.372;106.786;2022-08-19T10:07:45;15.05;;;4.55;;
31002;SDS011;23051;-6.372;106.786;2022-08-19T10:09:47;6.38;;;3.22;;
31002;SDS011;23051;-6.372;106.786;2022-08-19T10:11:51;8.60;;;4.30;;
31002;SDS011;23051;-6.372;106.786;2022-08-19T10:13:54;4.70;;;4.25;;
31002;SDS011;23051;-6.372;106.786;2022-08-19T10:18:05;5.22;;;3.00;;
31002;SDS011;23051;-6.372;106.786;2022-08-19T10:20:10;3.45;;;2.95;;
31002;SDS011;23051;-6.372;106.786;2022-08-19T10:22:11;9.00;;;3.92;;
31002;SDS011;23051;-6.372;106.786;2022-08-19T10:24:14;5.60;;;4.82;;
31002;SDS011;23051;-6.372;106.786;2022-08-19T10:26:19;3.72;;;3.42;;
31002;SDS011;23051;-6.372;106.786;2022-08-19T10:28:24;4.38;;;2.78;;
31002;SDS011;23051;-6.372;106.786;2022-08-19T10:30:25;5.93;;;3.33;;
31002;SDS011;23051;-6.372;106.786;2022-08-19T10:32:28;3.50;;;2.90;;
31002;SDS011;23051;-6.372;106.786;2022-08-19T10:34:32;6.03;;;3.80;;
31002;SDS011;23051;-6.372;106.786;2022-08-19T10:36:36;9.40;;;3.13;;
31002;SDS011;23051;-6.372;106.786;2022-08-19T10:38:42;3.88;;;3.50;;
31002;SDS011;23051;-6.372;106.786;2022-08-19T10:40:47;6.20;;;4.18;;
31002;SDS011;23051;-6.372;106.786;2022-08-19T10:42:48;4.22;;;2.50;;
31002;SDS011;23051;-6.372;106.786;2022-08-19T10:44:50;2.90;;;2.40;;
31002;SDS011;23051;-6.372;106.786;2022-08-19T10:46:54;6.55;;;3.63;;
31002;SDS011;23051;-6.372;106.786;2022-08-19T10:48:56;5.38;;;3.75;;
31002;SDS011;23051;-6.372;106.786;2022-08-19T10:51:00;6.95;;;4.93;;
31002;SDS011;23051;-6.372;106.786;2022-08-19T10:53:04;9.82;;;5.93;;
31002;SDS011;23051;-6.372;106.786;2022-08-19T10:55:11;3.22;;;3.00;;
31002;SDS011;23051;-6.372;106.786;2022-08-19T10:57:17;5.18;;;3.42;;
31002;SDS011;23051;-6.372;106.786;2022-08-19T10:59:22;4.78;;;2.75;;
31002;SDS011;23051;-6.372;106.786;2022-08-19T11:03:28;4.60;;;4.20;;
31002;SDS011;23051;-6.372;106.786;2022-08-19T11:05:29;7.95;;;3.30;;
31002;SDS011;23051;-6.372;106.786;2022-08-19T11:07:35;5.60;;;4.10;;
31002;SDS011;23051;-6.372;106.786;2022-08-19T11:09:39;11.40;;;4.88;;
31002;SDS011;23051;-6.372;106.786;2022-08-19T11:11:43;7.10;;;4.80;;
31002;SDS011;23051;-6.372;106.786;2022-08-19T11:13:50;6.07;;;4.85;;
31002;SDS011;23051;-6.372;106.786;2022-08-19T11:17:59;11.40;;;4.13;;
31002;SDS011;23051;-6.372;106.786;2022-08-19T11:20:01;6.00;;;3.95;;
31002;SDS011;23051;-6.372;106.786;2022-08-19T11:22:08;6.82;;;3.42;;
31002;SDS011;23051;-6.372;106.786;2022-08-19T11:24:12;2.88;;;2.47;;
31002;SDS011;23051;-6.372;106.786;2022-08-19T11:26:15;9.38;;;3.85;;
31002;SDS011;23051;-6.372;106.786;2022-08-19T11:28:22;7.80;;;3.33;;
31002;SDS011;23051;-6.372;106.786;2022-08-19T11:30:23;5.65;;;3.38;;
31002;SDS011;23051;-6.372;106.786;2022-08-19T11:32:25;2.83;;;2.08;;
31002;SDS011;23051;-6.372;106.786;2022-08-19T11:34:31;5.07;;;4.20;;
31002;SDS011;23051;-6.372;106.786;2022-08-19T11:36:33;3.67;;;2.55;;
31002;SDS011;23051;-6.372;106.786;2022-08-19T11:38:35;5.55;;;3.65;;
31002;SDS011;23051;-6.372;106.786;2022-08-19T11:40:37;3.03;;;2.50;;
31002;SDS011;23051;-6.372;106.786;2022-08-19T11:42:42;3.85;;;3.40;;
31002;SDS011;23051;-6.372;106.786;2022-08-19T11:44:47;3.25;;;2.95;;
31002;SDS011;23051;-6.372;106.786;2022-08-19T11:46:48;8.40;;;4.90;;
31002;SDS011;23051;-6.372;106.786;2022-08-19T11:48:52;5.78;;;4.07;;
31002;SDS011;23051;-6.372;106.786;2022-08-19T11:50:56;4.85;;;2.63;;
31002;SDS011;23051;-6.372;106.786;2022-08-19T11:52:58;7.63;;;4.35;;
31002;SDS011;23051;-6.372;106.786;2022-08-19T11:55:00;10.23;;;2.78;;
31002;SDS011;23051;-6.372;106.786;2022-08-19T11:59:03;9.23;;;4.75;;
31002;SDS011;23051;-6.372;106.786;2022-08-19T12:01:06;4.18;;;3.78;;
31002;SDS011;23051;-6.372;106.786;2022-08-19T12:03:12;6.45;;;3.72;;
31002;SDS011;23051;-6.372;106.786;2022-08-19T12:05:18;12.75;;;5.68;;
31002;SDS011;23051;-6.372;106.786;2022-08-19T12:07:20;8.18;;;3.28;;
31002;SDS011;23051;-6.372;106.786;2022-08-19T12:09:22;7.82;;;4.05;;
31002;SDS011;23051;-6.372;106.786;2022-08-19T12:11:26;4.20;;;3.70;;
31002;SDS011;23051;-6.372;106.786;2022-08-19T12:13:28;3.63;;;2.80;;
31002;SDS011;23051;-6.372;106.786;2022-08-19T12:15:38;5.85;;;4.47;;
31002;SDS011;23051;-6.372;106.786;2022-08-19T12:17:44;7.10;;;4.70;;
31002;SDS011;23051;-6.372;106.786;2022-08-19T12:19:45;5.00;;;4.53;;
31002;SDS011;23051;-6.372;106.786;2022-08-19T12:21:52;7.35;;;3.47;;
31002;SDS011;23051;-6.372;106.786;2022-08-19T12:23:58;8.27;;;6.18;;
31002;SDS011;23051;-6.372;106.786;2022-08-19T12:28:08;20.27;;;8.23;;
31002;SDS011;23051;-6.372;106.786;2022-08-19T12:30:12;5.03;;;3.90;;
31002;SDS011;23051;-6.372;106.786;2022-08-19T12:32:14;2.97;;;2.78;;
31002;SDS011;23051;-6.372;106.786;2022-08-19T12:34:17;5.13;;;4.00;;
31002;SDS011;23051;-6.372;106.786;2022-08-19T12:36:21;3.25;;;2.97;;
31002;SDS011;23051;-6.372;106.786;2022-08-19T12:38:25;5.57;;;4.40;;
31002;SDS011;23051;-6.372;106.786;2022-08-19T12:40:29;7.40;;;5.28;;
31002;SDS011;23051;-6.372;106.786;2022-08-19T12:42:30;3.63;;;2.75;;
31002;SDS011;23051;-6.372;106.786;2022-08-19T12:44:32;3.35;;;3.05;;
31002;SDS011;23051;-6.372;106.786;2022-08-19T12:48:37;7.13;;;4.30;;
31002;SDS011;23051;-6.372;106.786;2022-08-19T12:50:42;4.20;;;3.55;;
31002;SDS011;23051;-6.372;106.786;2022-08-19T12:52:47;4.70;;;3.13;;
31002;SDS011;23051;-6.372;106.786;2022-08-19T12:54:51;3.88;;;3.33;;